首页
METAR-TAF:

METAR-TAF

机场 :

阿特勞機場

阿特勞, 哈萨克斯坦

纬度: 47-07-19N, 经度: 051-49-17E, 海拔: -22米

当前天气观测

该预报发布于27分钟前的13:00 UTC
风速16节,风向西南
温度 32°C
湿度 21%
气压 1010 hPa
能见度10公里或以上
1500米以下无云,无积雨云

METAR: UATG 181300Z 23008MPS CAVOK 32/07 Q1010 R14/CLRD70 NOSIG RMK QFE759/1012

时间: 19:27 (13:27 UTC)

预报

该预报发布于2小时和26分钟前的11:01 UTC
预报有效从18日的 12点(UTC)到 19日的 12点(UTC)
风速14节,风向西南
能见度10公里或以上
散云层高于5000英尺
成为
从 18日的 16点(UTC)到 18日的 18点(UTC)
风速6节,风向多变
成为
从 19日的 05点(UTC)到 19日的 07点(UTC)
风速12节,风向西转西南

TAF: UATG 181101Z 1812/1912 22007MPS 9999 SCT050 TX34/1911Z TN22/1901Z BECMG 1816/1818 VRB03MPS BECMG 1905/1907 24006MPS

超过4000个机场的气象观测和天气预报(METAR&TAF报告)。

可查询的气象台以黄色和红色小点在地图上表示。

将鼠标移到小点上方,可查看气象台名称。

然后点击查看天气观测和预报。

如需切换地图:点击带黑十字的绿色按钮放大地图;点击带横线的绿色按钮缩小地图;或者点击绿色箭头查看邻近地区的地图。


METAR-TAF: